Time;durP1;ratioP1;P1;durP2;ratioP2;P2;SDS_P1;SDS_P2;PMS_P1;PMS_P2;Temp;Humidity;BMP_temperature;BMP_pressure;BME280_temperature;BME280_humidity;BME280_pressure;Samples;Min_cycle;Max_cycle;Signal;HPM_P1;HPM_P2
2021/07/14 00:02:25;;;;;;;45.13;39.93;;;19.50;99.90;;;;;;5020335;28;20453;-73
2021/07/14 00:04:51;;;;;;;47.50;41.10;;;19.50;99.90;;;;;;5023027;28;20248;-73
2021/07/14 00:07:17;;;;;;;47.10;38.60;;;19.50;99.90;;;;;;5018877;28;20441;-72
2021/07/14 00:09:43;;;;;;;43.20;37.17;;;19.50;99.90;;;;;;5019466;28;20462;-73
2021/07/14 00:12:10;;;;;;;42.60;36.80;;;19.50;99.90;;;;;;5015761;28;20183;-73
2021/07/14 00:22:21;;;;;;;44.73;36.87;;;19.40;99.90;;;;;;5024701;28;20836;-72
2021/07/14 00:24:47;;;;;;;40.40;34.33;;;19.40;99.90;;;;;;5024452;28;21497;-73
2021/07/14 00:27:13;;;;;;;42.93;36.03;;;19.40;99.90;;;;;;5021833;28;20509;-72
2021/07/14 00:29:54;;;;;;;42.00;35.37;;;19.40;99.90;;;;;;5018245;28;20784;-72
2021/07/14 00:32:21;;;;;;;43.10;36.10;;;19.40;99.90;;;;;;5024418;28;20297;-73
2021/07/14 00:34:47;;;;;;;47.00;37.13;;;19.40;99.90;;;;;;5013063;28;22435;-73
2021/07/14 00:37:14;;;;;;;41.43;34.23;;;19.40;99.90;;;;;;5018590;28;20860;-73
2021/07/14 00:39:41;;;;;;;40.43;33.23;;;19.40;99.90;;;;;;5022582;28;25097;-73
2021/07/14 00:42:08;;;;;;;39.30;34.30;;;19.40;99.90;;;;;;5023312;28;20808;-73
2021/07/14 00:44:33;;;;;;;37.80;32.47;;;19.40;99.90;;;;;;5025408;28;20476;-73
2021/07/14 00:47:05;;;;;;;37.30;31.80;;;19.40;99.90;;;;;;5018497;28;20866;-73
2021/07/14 00:49:32;;;;;;;38.37;30.33;;;19.40;99.90;;;;;;5022981;28;20225;-73
2021/07/14 00:51:59;;;;;;;36.10;31.77;;;19.40;99.90;;;;;;5024312;28;20441;-73
2021/07/14 00:54:25;;;;;;;36.43;30.70;;;19.30;99.90;;;;;;5024031;28;20532;-73
2021/07/14 00:56:51;;;;;;;36.87;31.77;;;19.40;99.90;;;;;;5018182;28;20453;-73
2021/07/14 00:59:17;;;;;;;33.60;29.93;;;19.40;99.90;;;;;;5020488;28;20932;-74
2021/07/14 01:01:46;;;;;;;37.10;29.63;;;19.40;99.90;;;;;;5036578;28;20195;-75
2021/07/14 01:04:17;;;;;;;35.70;31.60;;;19.40;99.90;;;;;;5015478;28;22244;-73
2021/07/14 01:07:04;;;;;;;34.27;30.57;;;19.40;99.90;;;;;;5008612;28;21483;-73
2021/07/14 01:09:46;;;;;;;36.17;30.57;;;19.40;99.90;;;;;;5015903;28;20461;-73
2021/07/14 01:12:31;;;;;;;33.17;28.27;;;19.30;99.90;;;;;;5017500;28;20529;-73
2021/07/14 01:15:08;;;;;;;32.23;28.83;;;19.30;99.90;;;;;;5017371;28;20484;-73
2021/07/14 01:17:38;;;;;;;34.73;28.90;;;19.30;99.90;;;;;;5026345;28;20444;-74
2021/07/14 01:20:21;;;;;;;33.20;29.60;;;19.30;99.90;;;;;;5020332;28;20453;-73
2021/07/14 01:23:15;;;;;;;35.23;29.20;;;19.30;99.90;;;;;;5026571;28;20444;-73
2021/07/14 01:26:02;;;;;;;34.70;29.57;;;19.30;99.90;;;;;;5018256;28;20491;-74
2021/07/14 01:28:30;;;;;;;35.17;30.83;;;19.30;99.90;;;;;;5004136;28;20459;-73
2021/07/14 01:30:57;;;;;;;31.90;28.30;;;19.30;99.90;;;;;;5008865;28;20449;-73
2021/07/14 01:33:29;;;;;;;35.80;31.20;;;19.30;99.90;;;;;;5020495;28;20896;-73
2021/07/14 01:35:56;;;;;;;38.27;31.17;;;19.30;99.90;;;;;;5023139;28;20445;-73
2021/07/14 01:38:26;;;;;;;37.70;31.00;;;19.30;99.90;;;;;;5019775;28;20982;-73
2021/07/14 01:40:58;;;;;;;34.00;29.70;;;19.30;99.90;;;;;;5012462;28;20978;-73
2021/07/14 01:43:25;;;;;;;36.53;29.97;;;19.20;99.90;;;;;;5019152;28;20445;-74
2021/07/14 01:45:53;;;;;;;38.37;31.70;;;19.20;99.90;;;;;;5018484;28;20473;-73
2021/07/14 01:48:21;;;;;;;35.23;30.27;;;19.20;99.90;;;;;;5028417;28;20445;-73
2021/07/14 01:50:49;;;;;;;38.53;33.53;;;19.20;99.90;;;;;;5023597;28;20456;-73
2021/07/14 01:53:17;;;;;;;39.97;32.90;;;19.20;99.90;;;;;;5022677;28;20460;-72
2021/07/14 01:55:45;;;;;;;39.43;32.13;;;19.20;99.90;;;;;;5029144;28;20466;-73
2021/07/14 01:58:11;;;;;;;40.30;32.70;;;19.10;99.90;;;;;;5021632;28;22090;-72
2021/07/14 02:00:37;;;;;;;37.30;30.60;;;19.10;99.90;;;;;;5015483;28;20808;-72
2021/07/14 02:03:16;;;;;;;34.90;29.73;;;19.20;99.90;;;;;;5021840;28;20940;-72
2021/07/14 02:05:44;;;;;;;36.97;30.80;;;19.10;99.90;;;;;;5018621;28;20508;-73
2021/07/14 02:08:09;;;;;;;37.13;30.87;;;19.10;99.90;;;;;;5018144;28;20643;-73
2021/07/14 02:10:38;;;;;;;35.83;30.27;;;19.20;99.90;;;;;;5008924;28;20834;-73
2021/07/14 02:13:04;;;;;;;39.37;31.90;;;19.10;99.90;;;;;;5024150;28;20270;-74
2021/07/14 02:15:31;;;;;;;34.50;28.70;;;19.10;99.90;;;;;;5020852;28;20453;-73
2021/07/14 02:18:02;;;;;;;36.13;29.60;;;19.20;99.90;;;;;;5022266;28;20858;-73
2021/07/14 02:20:28;;;;;;;35.83;29.90;;;19.20;99.90;;;;;;5023686;28;20445;-73
2021/07/14 02:22:53;;;;;;;31.47;27.60;;;19.20;99.90;;;;;;5023210;28;20518;-73
2021/07/14 02:25:21;;;;;;;36.63;29.27;;;19.20;99.90;;;;;;5015736;28;20225;-73
2021/07/14 02:27:47;;;;;;;32.57;28.57;;;19.20;99.90;;;;;;5032339;28;20187;-73
2021/07/14 02:30:19;;;;;;;39.83;29.10;;;19.20;99.90;;;;;;5019560;28;20927;-73
2021/07/14 02:32:55;;;;;;;33.97;29.37;;;19.20;99.90;;;;;;5018369;28;20724;-73
2021/07/14 02:35:21;;;;;;;30.93;26.67;;;19.20;99.90;;;;;;5033434;28;20449;-73
2021/07/14 02:37:50;;;;;;;33.03;28.20;;;19.20;99.90;;;;;;5020521;28;20537;-73
2021/07/14 02:40:24;;;;;;;31.00;26.80;;;19.20;99.90;;;;;;5021819;28;20469;-73
2021/07/14 02:42:53;;;;;;;31.30;26.67;;;19.10;99.90;;;;;;5015765;28;20595;-73
2021/07/14 02:45:19;;;;;;;34.20;27.83;;;19.10;99.90;;;;;;5028435;28;20480;-73
2021/07/14 02:47:45;;;;;;;33.40;27.10;;;19.10;99.90;;;;;;5028043;28;20476;-73
2021/07/14 02:50:16;;;;;;;31.07;26.13;;;19.10;99.90;;;;;;5023457;28;20183;-73
2021/07/14 02:52:46;;;;;;;29.50;26.40;;;19.10;99.90;;;;;;5015900;28;21185;-73
2021/07/14 02:55:17;;;;;;;28.93;25.50;;;19.20;99.90;;;;;;5013840;28;20612;-72
2021/07/14 02:57:44;;;;;;;31.10;26.43;;;19.10;99.90;;;;;;5024686;28;20441;-72
2021/07/14 03:00:10;;;;;;;27.53;23.50;;;19.10;99.90;;;;;;5016005;28;20459;-73
2021/07/14 03:02:37;;;;;;;28.17;25.17;;;19.10;99.90;;;;;;5019217;28;20441;-73
2021/07/14 03:05:03;;;;;;;32.20;25.77;;;19.10;99.90;;;;;;5018983;28;20503;-73
2021/07/14 03:07:31;;;;;;;31.07;26.60;;;19.10;99.90;;;;;;5021560;28;20449;-73
2021/07/14 03:09:58;;;;;;;29.60;24.10;;;19.10;99.90;;;;;;5020757;28;20556;-72
2021/07/14 03:12:25;;;;;;;27.97;24.70;;;19.00;99.90;;;;;;5023164;28;20442;-72
2021/07/14 03:15:00;;;;;;;27.90;23.83;;;19.00;99.90;;;;;;5019295;28;20442;-72
2021/07/14 03:17:30;;;;;;;28.40;24.50;;;19.00;99.90;;;;;;5014039;28;20460;-73
2021/07/14 03:19:58;;;;;;;28.83;25.37;;;19.00;99.90;;;;;;5020322;28;20525;-72
2021/07/14 03:22:25;;;;;;;29.20;24.90;;;19.00;99.90;;;;;;5025278;28;20556;-72
2021/07/14 03:24:53;;;;;;;25.87;23.00;;;19.00;99.90;;;;;;5024778;28;20942;-72
2021/07/14 03:27:18;;;;;;;26.50;22.17;;;19.00;99.90;;;;;;5030776;28;20473;-72
2021/07/14 03:29:47;;;;;;;26.67;21.70;;;19.00;99.90;;;;;;5009637;28;21568;-72
2021/07/14 03:32:13;;;;;;;25.40;22.17;;;19.00;99.90;;;;;;5019558;28;21162;-72
2021/07/14 03:34:39;;;;;;;26.47;23.20;;;19.10;99.90;;;;;;5025101;28;20954;-72
2021/07/14 03:37:06;;;;;;;23.03;19.87;;;19.00;99.90;;;;;;5018559;28;20298;-72
2021/07/14 03:39:35;;;;;;;22.40;19.93;;;19.00;99.90;;;;;;5019347;28;22708;-72
2021/07/14 03:42:02;;;;;;;22.23;19.87;;;19.00;99.90;;;;;;5022372;28;20636;-72
2021/07/14 03:44:28;;;;;;;25.20;20.67;;;19.00;99.90;;;;;;5019079;28;20448;-72
2021/07/14 03:46:55;;;;;;;23.90;20.70;;;19.00;99.90;;;;;;5017213;28;20472;-73
2021/07/14 03:49:21;;;;;;;24.73;20.67;;;19.00;99.90;;;;;;5021337;28;20191;-72
2021/07/14 03:51:48;;;;;;;24.63;21.60;;;19.00;99.90;;;;;;5019956;28;20441;-72
2021/07/14 03:54:15;;;;;;;26.50;22.20;;;19.00;99.90;;;;;;5022538;28;20788;-72
2021/07/14 03:56:42;;;;;;;26.60;22.50;;;19.00;99.90;;;;;;5020125;28;20467;-73
2021/07/14 03:59:08;;;;;;;30.30;21.47;;;19.00;99.90;;;;;;5012539;28;20809;-72
2021/07/14 04:01:35;;;;;;;27.57;22.97;;;19.00;99.90;;;;;;5015954;28;21049;-72
2021/07/14 04:04:01;;;;;;;30.27;23.23;;;19.00;99.90;;;;;;5022138;28;20193;-73
2021/07/14 04:06:34;;;;;;;25.73;22.57;;;19.00;99.90;;;;;;5024324;28;21149;-72
2021/07/14 04:09:19;;;;;;;29.23;23.47;;;18.90;99.90;;;;;;5022960;28;20461;-73
2021/07/14 04:11:47;;;;;;;30.43;23.30;;;19.00;99.90;;;;;;5020529;28;20660;-73
2021/07/14 04:14:13;;;;;;;32.50;25.10;;;19.00;99.90;;;;;;5026724;28;20448;-73
2021/07/14 04:16:39;;;;;;;30.07;24.30;;;19.00;99.90;;;;;;5020936;28;20481;-73
2021/07/14 04:19:04;;;;;;;28.30;24.23;;;19.00;99.90;;;;;;5022663;28;20191;-73
2021/07/14 04:21:30;;;;;;;31.23;22.20;;;18.90;99.90;;;;;;5017672;28;20297;-73
2021/07/14 04:23:56;;;;;;;24.93;20.63;;;18.90;99.90;;;;;;5028492;28;20283;-73
2021/07/14 04:26:23;;;;;;;29.77;23.40;;;18.90;99.90;;;;;;5026518;28;20484;-73
2021/07/14 04:28:49;;;;;;;27.60;22.53;;;18.90;99.90;;;;;;5017987;28;20184;-73
2021/07/14 04:31:15;;;;;;;30.57;22.90;;;18.90;99.90;;;;;;5006220;28;20977;-73
2021/07/14 04:33:44;;;;;;;27.97;22.60;;;19.10;99.90;;;;;;5016310;28;20449;-73
2021/07/14 04:36:10;;;;;;;27.67;22.77;;;19.10;99.90;;;;;;5017557;28;20221;-73
2021/07/14 04:38:36;;;;;;;26.77;22.30;;;19.10;99.90;;;;;;5018582;28;20996;-73
2021/07/14 04:41:02;;;;;;;31.70;26.00;;;19.20;99.90;;;;;;5020240;28;21120;-73
2021/07/14 04:43:29;;;;;;;29.50;24.60;;;19.20;99.90;;;;;;5031003;28;20192;-73
2021/07/14 04:45:55;;;;;;;28.20;23.80;;;19.20;99.90;;;;;;5024656;28;20470;-73
2021/07/14 04:48:20;;;;;;;30.23;24.90;;;19.20;99.90;;;;;;5014157;28;20437;-73
2021/07/14 04:50:46;;;;;;;28.77;22.93;;;19.20;99.90;;;;;;5022428;28;20179;-73
2021/07/14 04:53:12;;;;;;;26.53;23.00;;;19.20;99.90;;;;;;5028886;28;20184;-73
2021/07/14 04:55:39;;;;;;;27.83;23.67;;;19.20;99.90;;;;;;5024035;28;20826;-73
2021/07/14 04:58:05;;;;;;;30.23;22.97;;;19.20;99.90;;;;;;5022296;28;20760;-73
2021/07/14 05:00:30;;;;;;;29.80;23.47;;;19.20;99.90;;;;;;5019232;28;20513;-72
2021/07/14 05:02:56;;;;;;;31.90;24.93;;;19.30;99.90;;;;;;5014693;28;20546;-73
2021/07/14 05:05:22;;;;;;;31.80;25.20;;;19.20;99.90;;;;;;5004846;28;20673;-74
2021/07/14 05:07:49;;;;;;;34.07;25.97;;;19.20;99.90;;;;;;5017286;28;20572;-73
2021/07/14 05:10:16;;;;;;;28.07;23.37;;;19.30;99.90;;;;;;5031557;28;20205;-73
2021/07/14 05:12:42;;;;;;;28.30;21.70;;;19.30;99.90;;;;;;5047684;28;20437;-73
2021/07/14 05:15:09;;;;;;;30.43;24.10;;;19.30;99.90;;;;;;5028651;28;20630;-73
2021/07/14 05:17:35;;;;;;;29.27;21.23;;;19.20;99.90;;;;;;5037288;28;20577;-73
2021/07/14 05:20:00;;;;;;;29.47;22.17;;;19.20;99.90;;;;;;5042527;28;20440;-72
2021/07/14 05:22:27;;;;;;;26.07;21.50;;;19.20;99.90;;;;;;5044347;28;20686;-72
2021/07/14 05:24:52;;;;;;;31.17;21.30;;;19.20;99.90;;;;;;5048008;28;20746;-72
2021/07/14 05:27:18;;;;;;;28.93;20.37;;;19.20;99.90;;;;;;5037930;28;20553;-73
2021/07/14 05:29:44;;;;;;;26.43;19.83;;;19.30;99.90;;;;;;5041032;28;20186;-73
2021/07/14 05:32:09;;;;;;;25.00;21.10;;;19.30;99.90;;;;;;5043286;28;20589;-73
2021/07/14 05:34:35;;;;;;;26.63;21.43;;;19.30;99.90;;;;;;5046475;28;20306;-73
2021/07/14 05:37:01;;;;;;;30.90;23.80;;;19.20;99.90;;;;;;5046008;28;20660;-73
2021/07/14 05:39:26;;;;;;;27.73;24.00;;;19.20;99.90;;;;;;5053371;28;20187;-72
2021/07/14 05:41:52;;;;;;;28.27;22.53;;;19.30;99.90;;;;;;5052341;28;20194;-73
2021/07/14 05:44:18;;;;;;;30.27;23.00;;;19.40;99.90;;;;;;5032658;28;20183;-73
2021/07/14 05:46:44;;;;;;;26.20;21.93;;;19.40;99.90;;;;;;5046673;28;20203;-73
2021/07/14 05:49:10;;;;;;;29.07;23.37;;;19.30;99.90;;;;;;5045594;28;20191;-73
2021/07/14 05:51:36;;;;;;;26.40;22.50;;;19.40;99.90;;;;;;5047903;28;20496;-73
2021/07/14 05:54:02;;;;;;;27.90;22.90;;;19.30;99.90;;;;;;5042725;28;20437;-73
2021/07/14 05:56:28;;;;;;;28.33;21.60;;;19.30;99.90;;;;;;5034670;28;20210;-74
2021/07/14 05:58:54;;;;;;;26.63;21.30;;;19.30;99.90;;;;;;5037612;28;20445;-73
2021/07/14 06:01:20;;;;;;;31.60;23.00;;;19.40;99.90;;;;;;5048577;28;20301;-72
2021/07/14 06:03:49;;;;;;;26.50;20.53;;;19.40;99.90;;;;;;5040758;28;21789;-72
2021/07/14 06:06:15;;;;;;;27.73;22.23;;;19.40;99.90;;;;;;5040671;28;21555;-72
2021/07/14 06:08:42;;;;;;;30.33;22.93;;;19.40;99.90;;;;;;5047133;28;21167;-72
2021/07/14 06:11:08;;;;;;;31.10;23.10;;;19.30;99.90;;;;;;5046403;28;21959;-72
2021/07/14 06:13:34;;;;;;;33.67;22.90;;;19.30;99.90;;;;;;5051336;28;20457;-72
2021/07/14 06:15:59;;;;;;;29.07;23.77;;;19.30;99.90;;;;;;5037681;28;20454;-72
2021/07/14 06:18:25;;;;;;;29.80;24.27;;;19.30;99.90;;;;;;5038595;28;20186;-73
2021/07/14 06:20:51;;;;;;;29.30;21.83;;;19.30;99.90;;;;;;5047548;28;20186;-73
2021/07/14 06:23:16;;;;;;;35.90;25.90;;;19.30;99.90;;;;;;5047698;28;20248;-73
2021/07/14 06:25:42;;;;;;;28.57;21.87;;;19.30;99.90;;;;;;5025436;28;20288;-73
2021/07/14 06:28:12;;;;;;;32.73;23.83;;;19.30;99.90;;;;;;5032646;28;20203;-73
2021/07/14 06:30:39;;;;;;;33.83;24.53;;;19.30;99.90;;;;;;5027856;28;20436;-73
2021/07/14 06:33:05;;;;;;;29.97;22.10;;;19.30;99.90;;;;;;5045457;28;20457;-73
2021/07/14 06:35:31;;;;;;;28.23;21.17;;;19.30;99.90;;;;;;5052199;28;20523;-73
2021/07/14 06:37:58;;;;;;;26.40;19.20;;;19.40;99.90;;;;;;5050723;28;20190;-73
2021/07/14 06:40:23;;;;;;;28.13;21.33;;;19.30;99.90;;;;;;5047817;28;20847;-72
2021/07/14 06:42:49;;;;;;;26.43;20.40;;;19.30;99.90;;;;;;5037798;28;20459;-73
2021/07/14 06:45:16;;;;;;;23.80;18.97;;;19.30;99.90;;;;;;5036789;28;20213;-73
2021/07/14 06:47:42;;;;;;;25.60;19.37;;;19.30;99.90;;;;;;5038634;28;20441;-73
2021/07/14 06:50:11;;;;;;;27.87;19.93;;;19.30;99.90;;;;;;5039894;28;21094;-73
2021/07/14 06:52:38;;;;;;;27.90;22.00;;;19.30;99.90;;;;;;5029582;28;20445;-73
2021/07/14 06:55:05;;;;;;;28.27;21.17;;;19.30;99.90;;;;;;5028626;28;20467;-73
2021/07/14 06:57:31;;;;;;;28.17;19.80;;;19.30;99.90;;;;;;5041908;28;20464;-73
2021/07/14 06:59:57;;;;;;;25.13;20.00;;;19.30;99.90;;;;;;5035424;28;20454;-72
2021/07/14 07:02:23;;;;;;;24.03;19.30;;;19.40;99.90;;;;;;5041613;28;20511;-72
2021/07/14 07:04:48;;;;;;;20.90;18.23;;;19.50;99.90;;;;;;5031295;28;20227;-73
2021/07/14 07:07:14;;;;;;;23.60;19.47;;;19.50;99.90;;;;;;5020868;28;20460;-72
2021/07/14 07:09:40;;;;;;;20.13;16.33;;;19.50;99.90;;;;;;5040567;28;20187;-73
2021/07/14 07:12:07;;;;;;;20.63;16.10;;;19.40;99.90;;;;;;5039210;28;20261;-72
2021/07/14 07:14:32;;;;;;;19.80;15.33;;;19.40;99.90;;;;;;5044379;28;20935;-72
2021/07/14 07:16:58;;;;;;;20.50;16.07;;;19.40;99.90;;;;;;5036312;28;20462;-73
2021/07/14 07:19:23;;;;;;;25.43;15.63;;;19.30;99.90;;;;;;5027235;28;20442;-72
2021/07/14 07:21:50;;;;;;;17.33;15.23;;;19.40;99.90;;;;;;5027446;28;20233;-72
2021/07/14 07:24:16;;;;;;;16.60;14.70;;;19.40;99.90;;;;;;5040977;28;20665;-72
2021/07/14 07:26:45;;;;;;;20.73;15.17;;;19.30;99.90;;;;;;5045914;28;20476;-72
2021/07/14 07:29:11;;;;;;;16.07;12.67;;;19.30;99.90;;;;;;5034850;28;20442;-72
2021/07/14 07:31:38;;;;;;;15.03;11.80;;;19.30;99.90;;;;;;5034338;28;20494;-72
2021/07/14 07:34:04;;;;;;;17.73;12.83;;;19.40;99.90;;;;;;5035542;28;20449;-72
2021/07/14 07:36:30;;;;;;;15.13;13.30;;;19.30;99.90;;;;;;5034347;28;20452;-72
2021/07/14 07:38:55;;;;;;;17.87;12.50;;;19.30;99.90;;;;;;5030450;28;20691;-72
2021/07/14 07:41:23;;;;;;;14.67;11.63;;;19.30;99.90;;;;;;5035636;28;20206;-73
2021/07/14 07:43:49;;;;;;;13.97;11.27;;;19.30;99.90;;;;;;5015485;28;20191;-73
2021/07/14 07:46:15;;;;;;;12.47;10.57;;;19.30;99.90;;;;;;5020047;28;20925;-72
2021/07/14 07:48:41;;;;;;;12.27;10.37;;;19.30;99.90;;;;;;5007609;28;20508;-72
2021/07/14 07:51:08;;;;;;;13.00;10.60;;;19.30;99.90;;;;;;5014786;28;20209;-72
2021/07/14 07:53:35;;;;;;;12.60;10.37;;;19.30;99.90;;;;;;5019211;28;20682;-72
2021/07/14 07:56:01;;;;;;;12.57;10.87;;;19.30;99.90;;;;;;5018660;28;20576;-72
2021/07/14 07:58:27;;;;;;;12.00;10.00;;;19.30;99.90;;;;;;5022404;28;20449;-72
2021/07/14 08:00:54;;;;;;;14.30;10.57;;;19.20;99.90;;;;;;5018858;28;20457;-72
2021/07/14 08:03:19;;;;;;;14.23;11.33;;;19.30;99.90;;;;;;5021433;28;20460;-72
2021/07/14 08:05:45;;;;;;;13.80;10.40;;;19.30;99.90;;;;;;5013816;28;20974;-72
2021/07/14 08:08:12;;;;;;;13.00;10.77;;;19.30;99.90;;;;;;5022420;28;20202;-72
2021/07/14 08:10:38;;;;;;;14.73;11.30;;;19.30;99.90;;;;;;5014838;28;20797;-72
2021/07/14 08:13:05;;;;;;;16.67;11.67;;;19.30;99.90;;;;;;5024566;28;20189;-72
2021/07/14 08:15:31;;;;;;;19.17;12.40;;;19.30;99.90;;;;;;5017201;28;20448;-72
2021/07/14 08:17:57;;;;;;;16.57;12.20;;;19.30;99.90;;;;;;5024436;28;20498;-73
2021/07/14 08:20:23;;;;;;;16.73;12.93;;;19.30;99.90;;;;;;5021323;28;20452;-72
2021/07/14 08:22:51;;;;;;;18.40;13.53;;;19.30;99.90;;;;;;5021505;28;20441;-73
2021/07/14 08:25:17;;;;;;;14.40;11.90;;;19.40;99.90;;;;;;5020236;28;20218;-73
2021/07/14 08:27:43;;;;;;;16.73;12.20;;;19.40;99.90;;;;;;5021695;28;20583;-72
2021/07/14 08:30:10;;;;;;;18.23;14.20;;;19.40;99.90;;;;;;5024995;28;20457;-73
2021/07/14 08:32:36;;;;;;;19.00;12.77;;;19.50;99.90;;;;;;5023526;28;20449;-72
2021/07/14 08:35:03;;;;;;;24.13;14.70;;;19.50;99.90;;;;;;5021673;28;20842;-72
2021/07/14 08:37:28;;;;;;;22.87;15.70;;;19.40;99.90;;;;;;5022019;28;20184;-71
2021/07/14 08:39:58;;;;;;;16.47;13.97;;;19.40;99.90;;;;;;5024476;28;20477;-72
2021/07/14 08:42:25;;;;;;;18.77;14.37;;;19.40;99.90;;;;;;5023058;28;20733;-71
2021/07/14 08:44:52;;;;;;;19.60;14.67;;;19.50;99.90;;;;;;5013610;28;20457;-72
2021/07/14 08:47:18;;;;;;;18.77;15.17;;;19.40;99.90;;;;;;5020798;28;20879;-72
2021/07/14 08:49:47;;;;;;;22.63;14.90;;;19.40;99.90;;;;;;5018594;28;20538;-72
2021/07/14 08:52:14;;;;;;;20.80;15.60;;;19.40;99.90;;;;;;5016280;28;20503;-71
2021/07/14 08:54:43;;;;;;;21.17;16.20;;;19.40;99.90;;;;;;5019938;28;20520;-72
2021/07/14 08:57:11;;;;;;;20.90;15.43;;;19.40;99.90;;;;;;5020094;28;20753;-72
2021/07/14 08:59:38;;;;;;;24.50;17.27;;;19.40;99.90;;;;;;5016836;28;20449;-71
2021/07/14 09:02:04;;;;;;;24.63;16.27;;;19.40;99.90;;;;;;5017315;28;21155;-72
2021/07/14 09:04:30;;;;;;;26.00;16.67;;;19.40;99.90;;;;;;5020424;28;20477;-72
2021/07/14 09:06:55;;;;;;;26.10;17.97;;;19.30;99.90;;;;;;5019884;28;20787;-72
2021/07/14 09:09:22;;;;;;;30.70;18.70;;;19.30;99.90;;;;;;5015806;28;20563;-71
2021/07/14 09:11:53;;;;;;;27.50;19.10;;;19.40;99.90;;;;;;5016405;28;20813;-72
2021/07/14 09:14:31;;;;;;;28.17;19.07;;;19.30;99.90;;;;;;5018610;28;20441;-71
2021/07/14 09:16:58;;;;;;;34.17;19.87;;;19.30;99.90;;;;;;5047246;28;20425;-72
2021/07/14 09:19:25;;;;;;;33.60;20.93;;;19.40;99.90;;;;;;5047350;28;20433;-72
2021/07/14 09:21:53;;;;;;;27.67;19.10;;;19.40;99.90;;;;;;5050602;28;20436;-72
2021/07/14 09:24:21;;;;;;;35.73;21.33;;;19.40;99.90;;;;;;5035958;28;20437;-72
2021/07/14 09:26:47;;;;;;;36.60;22.70;;;19.40;99.90;;;;;;5039994;28;20456;-72
2021/07/14 09:29:13;;;;;;;36.17;21.77;;;19.30;99.90;;;;;;5045323;28;20787;-71
2021/07/14 09:31:44;;;;;;;37.10;22.13;;;19.40;99.90;;;;;;5054658;28;20215;-71
2021/07/14 09:34:26;;;;;;;39.57;22.83;;;19.40;99.90;;;;;;5049565;28;20215;-71
2021/07/14 09:36:56;;;;;;;42.90;23.10;;;19.30;99.90;;;;;;5044349;28;20448;-72
2021/07/14 09:39:33;;;;;;;37.93;21.27;;;19.30;99.90;;;;;;5040469;28;21017;-72
2021/07/14 09:42:05;;;;;;;34.73;21.27;;;19.40;99.90;;;;;;5045047;28;20470;-72
2021/07/14 09:44:31;;;;;;;38.80;22.83;;;19.40;99.90;;;;;;5049822;28;21032;-72
2021/07/14 09:47:18;;;;;;;35.63;21.93;;;19.50;99.90;;;;;;5035707;28;20464;-72
2021/07/14 09:49:45;;;;;;;39.00;23.80;;;19.50;99.90;;;;;;5038228;28;20569;-71
2021/07/14 09:52:22;;;;;;;33.47;21.87;;;19.40;99.90;;;;;;5037792;28;20448;-72
2021/07/14 09:54:48;;;;;;;37.63;22.23;;;19.50;99.90;;;;;;5008090;28;20532;-72
2021/07/14 09:57:17;;;;;;;37.03;23.33;;;19.50;99.90;;;;;;5015878;28;20792;-72
2021/07/14 09:59:43;;;;;;;35.27;22.20;;;19.50;99.90;;;;;;5019393;28;20520;-72
2021/07/14 10:02:11;;;;;;;34.93;22.77;;;19.50;99.90;;;;;;5023420;28;20457;-73
2021/07/14 10:04:39;;;;;;;30.33;21.00;;;19.50;99.90;;;;;;5029668;28;20488;-72
2021/07/14 10:07:07;;;;;;;37.13;23.00;;;19.50;99.90;;;;;;5032938;28;21129;-72
2021/07/14 10:09:33;;;;;;;31.43;21.10;;;19.40;99.90;;;;;;5016096;28;20446;-72
2021/07/14 10:12:25;;;;;;;32.97;23.07;;;19.50;99.90;;;;;;5029139;28;20543;-72
2021/07/14 10:14:51;;;;;;;38.33;22.00;;;19.50;99.90;;;;;;5032897;28;21014;-72
2021/07/14 10:17:37;;;;;;;35.83;23.53;;;19.60;99.90;;;;;;5025673;28;20434;-72
2021/07/14 10:20:37;;;;;;;34.10;21.33;;;19.60;99.90;;;;;;5026945;28;20194;-72
2021/07/14 10:23:15;;;;;;;31.50;20.37;;;19.50;99.90;;;;;;5026809;28;20529;-72
2021/07/14 10:25:44;;;;;;;35.20;22.53;;;19.50;99.90;;;;;;5024875;28;20472;-72
2021/07/14 10:28:12;;;;;;;38.07;22.80;;;19.50;99.90;;;;;;5018160;28;20810;-72
2021/07/14 10:30:40;;;;;;;39.30;23.20;;;19.50;99.90;;;;;;5020326;28;20939;-72
2021/07/14 10:33:08;;;;;;;29.57;21.13;;;19.50;99.90;;;;;;5028095;28;20449;-72
2021/07/14 10:35:40;;;;;;;33.17;23.07;;;19.50;99.90;;;;;;5032549;28;20975;-72
2021/07/14 10:38:14;;;;;;;35.27;24.17;;;19.50;99.90;;;;;;5028077;28;20808;-71
2021/07/14 10:40:40;;;;;;;38.27;23.60;;;19.50;99.90;;;;;;5027048;28;20515;-72
2021/07/14 10:43:07;;;;;;;40.53;23.13;;;19.50;99.90;;;;;;5018147;28;20867;-72
2021/07/14 10:45:33;;;;;;;34.03;22.23;;;19.50;99.90;;;;;;5033479;28;20473;-72
2021/07/14 10:47:59;;;;;;;39.53;25.47;;;19.50;99.90;;;;;;5024607;28;20454;-72
2021/07/14 10:50:25;;;;;;;36.20;24.50;;;19.50;99.90;;;;;;5021111;28;20452;-72
2021/07/14 10:52:52;;;;;;;34.80;23.87;;;19.50;99.90;;;;;;5025388;28;20788;-72
2021/07/14 10:55:23;;;;;;;41.93;25.27;;;19.50;99.90;;;;;;5029485;28;20473;-72
2021/07/14 10:57:51;;;;;;;49.77;26.20;;;19.50;99.90;;;;;;5024877;28;20464;-72
2021/07/14 11:00:18;;;;;;;44.73;28.67;;;19.50;99.90;;;;;;5029685;28;20465;-72
2021/07/14 11:02:46;;;;;;;40.20;26.73;;;19.50;99.90;;;;;;5020997;28;21014;-72
2021/07/14 11:05:13;;;;;;;43.27;27.30;;;19.50;99.90;;;;;;5021047;28;20479;-72
2021/07/14 11:07:46;;;;;;;41.43;27.50;;;19.50;99.90;;;;;;5028693;28;20848;-72
2021/07/14 11:10:34;;;;;;;45.03;26.50;;;19.50;99.90;;;;;;5027176;28;20534;-72
2021/07/14 11:13:28;;;;;;;41.77;27.50;;;19.50;99.90;;;;;;5023212;28;20471;-72
2021/07/14 11:15:55;;;;;;;44.50;29.47;;;19.50;99.90;;;;;;5024980;28;20557;-72
2021/07/14 11:18:29;;;;;;;41.00;28.27;;;19.50;99.90;;;;;;5025027;28;20891;-72
2021/07/14 11:20:59;;;;;;;46.90;30.93;;;19.50;99.90;;;;;;5023185;28;20440;-72
2021/07/14 11:23:28;;;;;;;50.73;31.70;;;19.50;99.90;;;;;;5026714;28;20437;-72
2021/07/14 11:25:55;;;;;;;49.23;31.80;;;19.50;99.90;;;;;;5028527;28;20523;-72
2021/07/14 11:28:23;;;;;;;55.37;32.17;;;19.50;99.90;;;;;;5028102;28;20583;-72
2021/07/14 11:30:52;;;;;;;49.07;33.10;;;19.50;99.90;;;;;;5024845;28;20536;-72
2021/07/14 11:33:23;;;;;;;56.30;33.70;;;19.50;99.90;;;;;;5029099;28;20446;-72
2021/07/14 11:36:15;;;;;;;57.90;32.43;;;19.50;99.90;;;;;;5027255;28;20858;-72
2021/07/14 11:38:53;;;;;;;54.40;31.60;;;19.50;99.90;;;;;;5021473;28;20457;-73
2021/07/14 11:41:28;;;;;;;51.83;33.00;;;19.60;99.90;;;;;;5024640;28;21304;-73
2021/07/14 11:43:55;;;;;;;55.87;34.37;;;19.50;99.90;;;;;;5026320;28;20448;-72
2021/07/14 11:46:30;;;;;;;51.97;35.83;;;19.50;99.90;;;;;;5029185;28;20476;-73
2021/07/14 11:49:00;;;;;;;49.63;33.33;;;19.50;99.90;;;;;;5011895;28;20443;-73
2021/07/14 11:51:26;;;;;;;61.47;35.37;;;19.50;99.90;;;;;;5012195;28;20843;-72
2021/07/14 11:53:54;;;;;;;56.63;35.57;;;19.50;99.90;;;;;;5018561;28;20448;-72
2021/07/14 11:56:26;;;;;;;60.10;33.67;;;19.50;99.90;;;;;;5005604;28;20492;-72
2021/07/14 11:59:11;;;;;;;59.37;38.07;;;19.50;99.90;;;;;;5010957;28;20909;-72
2021/07/14 12:01:51;;;;;;;57.83;37.87;;;19.40;99.90;;;;;;5001995;28;20441;-72
2021/07/14 12:04:21;;;;;;;71.60;39.50;;;19.30;99.90;;;;;;5016828;28;20499;-71
2021/07/14 12:07:01;;;;;;;67.70;39.60;;;19.30;99.90;;;;;;5002205;28;21112;-72
2021/07/14 12:09:29;;;;;;;62.77;38.80;;;19.30;99.90;;;;;;5018363;28;20520;-72
2021/07/14 12:12:06;;;;;;;69.47;41.10;;;19.30;99.90;;;;;;5031907;28;20516;-72
2021/07/14 12:14:40;;;;;;;74.93;40.77;;;19.30;99.90;;;;;;5020769;28;20453;-72
2021/07/14 12:17:20;;;;;;;69.07;39.73;;;19.30;99.90;;;;;;5033765;28;20444;-72
2021/07/14 12:19:54;;;;;;;64.10;39.80;;;19.30;99.90;;;;;;5027159;28;20483;-72
2021/07/14 12:22:20;;;;;;;59.57;40.70;;;19.30;99.90;;;;;;5031277;28;20820;-72
2021/07/14 12:25:15;;;;;;;70.10;42.67;;;19.30;99.90;;;;;;5027291;28;20528;-72
2021/07/14 12:27:43;;;;;;;77.87;40.27;;;19.30;99.90;;;;;;5036096;28;20704;-72
2021/07/14 12:30:23;;;;;;;62.13;40.27;;;19.20;99.90;;;;;;5008900;28;21869;-72
2021/07/14 12:32:57;;;;;;;68.40;39.87;;;19.20;99.90;;;;;;5010844;28;20437;-73
2021/07/14 12:35:22;;;;;;;68.37;40.70;;;19.20;99.90;;;;;;5022369;28;20492;-72
2021/07/14 12:37:50;;;;;;;65.20;42.03;;;19.20;99.90;;;;;;5024884;28;20457;-73
2021/07/14 12:40:31;;;;;;;63.67;42.20;;;19.20;99.90;;;;;;5022884;28;20211;-72
2021/07/14 12:42:59;;;;;;;71.03;42.80;;;19.20;99.90;;;;;;5016567;28;20457;-72
2021/07/14 12:45:31;;;;;;;73.90;45.63;;;19.10;99.90;;;;;;5031312;28;20456;-72